createdAt,value
2022-08-22T00:01:55.504Z,12.13
2022-08-22T00:03:15.513Z,12.32
2022-08-22T00:04:36.911Z,11.07
2022-08-22T00:07:30.501Z,14.35
2022-08-22T00:10:25.185Z,8.07
2022-08-22T00:13:12.600Z,12.27
2022-08-22T00:15:52.612Z,7.50
2022-08-22T00:18:31.802Z,21.80
2022-08-22T00:21:24.938Z,8.40
2022-08-22T00:24:32.176Z,9.13
2022-08-22T00:29:44.335Z,12.68
2022-08-22T00:32:33.677Z,11.10
2022-08-22T00:35:13.108Z,11.73
2022-08-22T00:38:05.722Z,16.08
2022-08-22T00:41:01.623Z,12.55
2022-08-22T00:43:35.300Z,14.60
2022-08-22T00:46:46.752Z,19.95
2022-08-22T00:49:44.748Z,15.02
2022-08-22T00:52:26.184Z,12.30
2022-08-22T00:55:02.494Z,15.82
2022-08-22T00:57:48.740Z,10.63
2022-08-22T01:00:29.314Z,11.85
2022-08-22T01:03:13.716Z,11.65
2022-08-22T01:06:03.466Z,12.38
2022-08-22T01:08:45.988Z,12.93
2022-08-22T01:11:51.983Z,12.43
2022-08-22T01:14:48.783Z,10.43
2022-08-22T01:17:59.753Z,16.10
2022-08-22T01:20:59.445Z,14.82
2022-08-22T01:23:59.404Z,14.85
2022-08-22T01:26:59.311Z,14.13
2022-08-22T01:29:57.667Z,12.75
2022-08-22T01:32:31.192Z,11.57
2022-08-22T01:35:15.313Z,11.63
2022-08-22T01:38:06.785Z,12.52
2022-08-22T01:40:53.860Z,13.48
2022-08-22T01:46:32.516Z,10.73
2022-08-22T01:49:05.397Z,9.77
2022-08-22T01:51:50.832Z,12.25
2022-08-22T01:54:33.929Z,12.30
2022-08-22T01:57:08.431Z,13.77
2022-08-22T01:59:42.260Z,10.27
2022-08-22T02:02:31.443Z,12.27
2022-08-22T02:05:40.027Z,14.60
2022-08-22T02:08:37.509Z,10.80
2022-08-22T02:11:06.499Z,11.30
2022-08-22T02:13:42.857Z,13.48
2022-08-22T02:16:22.976Z,17.08
2022-08-22T02:19:05.197Z,17.25
2022-08-22T02:21:41.336Z,13.60
2022-08-22T02:24:23.433Z,11.80
2022-08-22T02:27:05.865Z,11.13
2022-08-22T02:29:43.863Z,14.35
2022-08-22T02:32:11.027Z,8.65
2022-08-22T02:35:03.594Z,13.65
2022-08-22T02:38:20.948Z,14.48
2022-08-22T02:41:09.477Z,10.70
2022-08-22T02:43:54.163Z,11.43
2022-08-22T02:46:50.446Z,12.73
2022-08-22T02:49:43.785Z,12.65
2022-08-22T02:52:25.248Z,9.98
2022-08-22T02:55:00.816Z,15.05
2022-08-22T02:57:44.694Z,19.95
2022-08-22T03:00:31.062Z,11.52
2022-08-22T03:02:59.374Z,15.32
2022-08-22T03:05:38.562Z,12.02
2022-08-22T03:08:18.716Z,10.95
2022-08-22T03:11:01.243Z,11.90
2022-08-22T03:14:05.848Z,13.02
2022-08-22T03:16:54.362Z,11.10
2022-08-22T03:19:44.034Z,13.05
2022-08-22T03:22:35.859Z,13.05
2022-08-22T03:25:09.002Z,13.75
2022-08-22T03:27:39.748Z,13.23
2022-08-22T03:30:10.827Z,16.60
2022-08-22T03:32:55.001Z,12.32
2022-08-22T03:35:27.077Z,12.30
2022-08-22T03:38:09.451Z,10.77
2022-08-22T03:41:00.893Z,16.85
2022-08-22T03:43:53.817Z,18.48
2022-08-22T03:46:58.614Z,14.43
2022-08-22T03:50:04.419Z,12.00
2022-08-22T03:53:15.362Z,11.52
2022-08-22T03:56:11.366Z,12.13
2022-08-22T03:59:11.636Z,13.32
2022-08-22T04:01:48.032Z,16.70
2022-08-22T04:04:48.318Z,16.17
2022-08-22T04:07:31.638Z,12.55
2022-08-22T04:10:08.347Z,13.05
2022-08-22T04:13:05.955Z,13.13
2022-08-22T04:16:19.503Z,15.80
2022-08-22T04:19:23.961Z,12.55
2022-08-22T04:22:26.797Z,14.52
2022-08-22T04:25:08.208Z,12.02
2022-08-22T04:28:03.170Z,13.60
2022-08-22T04:30:53.280Z,13.32
2022-08-22T04:33:35.280Z,12.00
2022-08-22T04:36:16.243Z,14.70
2022-08-22T04:39:00.089Z,17.08
2022-08-22T04:42:11.154Z,14.77
2022-08-22T04:44:49.956Z,11.50
2022-08-22T04:47:40.389Z,10.15
2022-08-22T04:50:25.775Z,12.10
2022-08-22T04:53:14.619Z,11.57
2022-08-22T04:56:11.888Z,12.57
2022-08-22T04:58:46.766Z,12.02
2022-08-22T05:01:14.898Z,12.38
2022-08-22T05:03:55.689Z,12.35
2022-08-22T05:06:28.704Z,9.35
2022-08-22T05:09:00.878Z,14.75
2022-08-22T05:11:30.622Z,13.00
2022-08-22T05:14:02.581Z,14.75
2022-08-22T05:16:37.138Z,11.32
2022-08-22T05:19:16.918Z,16.30
2022-08-22T05:21:48.180Z,14.88
2022-08-22T05:24:28.874Z,10.18
2022-08-22T05:27:01.589Z,11.05
2022-08-22T05:29:31.785Z,9.25
2022-08-22T05:32:07.024Z,10.70
2022-08-22T05:34:39.943Z,19.33
2022-08-22T05:37:22.981Z,9.73
2022-08-22T05:39:57.519Z,12.73
2022-08-22T05:42:37.586Z,9.40
2022-08-22T05:45:12.062Z,13.73
2022-08-22T05:47:43.464Z,11.82
2022-08-22T05:50:35.633Z,14.80
2022-08-22T05:53:06.418Z,12.55
2022-08-22T05:55:59.993Z,14.27
2022-08-22T05:58:41.779Z,11.50
2022-08-22T06:01:34.816Z,12.38
2022-08-22T06:04:14.149Z,12.07
2022-08-22T06:06:57.255Z,13.35
2022-08-22T06:09:48.687Z,11.93
2022-08-22T06:12:39.281Z,16.73
2022-08-22T06:15:26.575Z,12.93
2022-08-22T06:18:01.605Z,13.13
2022-08-22T06:20:39.952Z,11.73
2022-08-22T06:23:10.784Z,13.02
2022-08-22T06:25:40.487Z,9.07
2022-08-22T06:28:11.501Z,9.27
2022-08-22T06:30:39.993Z,10.52
2022-08-22T06:33:12.847Z,12.15
2022-08-22T06:36:22.211Z,8.95
2022-08-22T06:39:01.792Z,13.45
2022-08-22T06:41:33.349Z,11.20
2022-08-22T06:44:03.966Z,8.70
2022-08-22T06:46:36.542Z,10.05
2022-08-22T06:49:07.932Z,12.95
2022-08-22T06:51:39.860Z,10.05
2022-08-22T06:54:14.680Z,8.40
2022-08-22T06:56:46.340Z,12.93
2022-08-22T06:59:24.259Z,13.20
2022-08-22T07:02:08.401Z,9.70
2022-08-22T07:04:36.925Z,9.75
2022-08-22T07:07:05.590Z,12.93
2022-08-22T07:09:36.135Z,14.93
2022-08-22T07:12:14.042Z,13.45
2022-08-22T07:14:44.304Z,11.77
2022-08-22T07:17:46.694Z,8.32
2022-08-22T07:20:38.663Z,7.95
2022-08-22T07:23:10.710Z,8.55
2022-08-22T07:26:05.133Z,10.38
2022-08-22T07:28:59.169Z,14.20
2022-08-22T07:32:01.442Z,11.93
2022-08-22T07:35:07.095Z,10.25
2022-08-22T07:37:45.123Z,9.30
2022-08-22T07:40:31.984Z,10.00
2022-08-22T07:43:22.243Z,11.10
2022-08-22T07:46:06.557Z,12.70
2022-08-22T07:49:05.900Z,10.85
2022-08-22T07:51:41.717Z,14.88
2022-08-22T07:54:17.051Z,13.07
2022-08-22T07:57:03.375Z,9.13
2022-08-22T07:59:33.321Z,11.55
2022-08-22T08:02:04.945Z,12.40
2022-08-22T08:04:40.045Z,10.88
2022-08-22T08:07:10.674Z,10.85
2022-08-22T08:09:46.346Z,14.02
2022-08-22T08:12:15.960Z,13.45
2022-08-22T08:14:45.949Z,13.73
2022-08-22T08:17:26.955Z,15.85
2022-08-22T08:19:59.764Z,12.40
2022-08-22T08:22:27.830Z,12.10
2022-08-22T08:24:58.460Z,10.27
2022-08-22T08:27:50.508Z,11.95
2022-08-22T08:30:21.686Z,11.73
2022-08-22T08:32:59.535Z,10.98
2022-08-22T08:36:02.599Z,10.65
2022-08-22T08:38:59.887Z,11.45
2022-08-22T08:41:49.952Z,14.23
2022-08-22T08:44:38.570Z,19.05
2022-08-22T08:47:40.240Z,15.10
2022-08-22T08:50:21.196Z,8.70
2022-08-22T08:52:58.552Z,8.50
2022-08-22T08:58:31.986Z,9.40
2022-08-22T09:01:11.619Z,9.27
2022-08-22T09:04:05.053Z,10.68
2022-08-22T09:07:01.052Z,8.63
2022-08-22T09:09:40.976Z,10.00
2022-08-22T09:12:36.501Z,6.95
2022-08-22T09:15:54.930Z,11.02
2022-08-22T09:18:57.133Z,7.65
2022-08-22T09:21:55.624Z,9.63
2022-08-22T09:24:41.306Z,8.63
2022-08-22T09:27:18.488Z,9.77
2022-08-22T09:29:57.247Z,7.88
2022-08-22T09:32:39.787Z,9.15
2022-08-22T09:35:26.547Z,8.65
2022-08-22T09:37:53.829Z,7.97
2022-08-22T09:40:42.662Z,7.82
2022-08-22T09:43:21.192Z,12.18
2022-08-22T09:46:17.176Z,5.13
2022-08-22T09:49:00.661Z,5.03
2022-08-22T09:51:39.698Z,9.30
2022-08-22T09:54:24.871Z,6.38
2022-08-22T09:57:23.732Z,6.53
2022-08-22T10:00:16.184Z,5.97
2022-08-22T10:03:03.710Z,5.25
2022-08-22T10:05:44.303Z,4.35
2022-08-22T10:08:19.970Z,5.63
2022-08-22T10:11:19.514Z,4.90
2022-08-22T10:14:01.585Z,3.80
2022-08-22T10:16:54.335Z,8.45
2022-08-22T10:19:36.350Z,6.50
2022-08-22T10:22:34.935Z,6.93
2022-08-22T10:25:20.721Z,8.77
2022-08-22T10:27:50.887Z,4.93
2022-08-22T10:30:59.242Z,9.32
2022-08-22T10:33:46.106Z,4.07
2022-08-22T10:36:36.798Z,7.10
2022-08-22T10:39:11.621Z,5.32
2022-08-22T10:42:08.125Z,5.20
2022-08-22T10:44:48.822Z,7.07
2022-08-22T10:47:22.358Z,10.77
2022-08-22T10:50:02.462Z,6.25
2022-08-22T10:52:46.439Z,7.20
2022-08-22T10:55:27.215Z,5.57
2022-08-22T10:58:09.670Z,9.15
2022-08-22T11:01:37.845Z,6.03
2022-08-22T11:04:09.731Z,4.90
2022-08-22T11:06:51.559Z,5.28
2022-08-22T11:09:21.653Z,7.28
2022-08-22T11:12:20.258Z,5.10
2022-08-22T11:15:07.418Z,4.25
2022-08-22T11:18:14.378Z,5.07
2022-08-22T11:21:03.687Z,4.63
2022-08-22T11:23:52.910Z,9.32
2022-08-22T11:26:47.470Z,5.07
2022-08-22T11:29:33.731Z,5.07
2022-08-22T11:32:26.743Z,5.77
2022-08-22T11:34:54.087Z,8.02
2022-08-22T11:37:59.761Z,6.28
2022-08-22T11:40:41.504Z,8.63
2022-08-22T11:43:27.706Z,4.18
2022-08-22T11:46:19.859Z,7.70
2022-08-22T11:49:33.636Z,4.18
2022-08-22T11:52:06.518Z,7.82
2022-08-22T11:55:16.967Z,5.20
2022-08-22T11:57:49.297Z,5.90
2022-08-22T12:00:33.166Z,5.28
2022-08-22T12:03:17.751Z,7.70
2022-08-22T12:06:01.826Z,2.72
2022-08-22T12:08:28.978Z,7.32
2022-08-22T12:11:03.471Z,4.88
2022-08-22T12:14:03.951Z,3.65
2022-08-22T12:16:57.483Z,4.30
2022-08-22T12:19:33.465Z,5.93
2022-08-22T12:22:28.859Z,4.80
2022-08-22T12:25:12.232Z,6.43
2022-08-22T12:27:55.099Z,7.55
2022-08-22T12:30:25.317Z,4.72
2022-08-22T12:33:06.471Z,5.63
2022-08-22T12:35:58.397Z,4.78
2022-08-22T12:38:35.966Z,8.50
2022-08-22T12:41:27.839Z,4.13
2022-08-22T12:44:16.412Z,5.60
2022-08-22T12:47:07.163Z,7.07
2022-08-22T12:50:07.489Z,5.90
2022-08-22T12:53:07.727Z,2.63
2022-08-22T12:56:10.159Z,5.55
2022-08-22T12:58:56.069Z,6.40
2022-08-22T13:01:34.045Z,6.53
2022-08-22T13:04:05.672Z,4.45
2022-08-22T13:06:36.039Z,5.60
2022-08-22T13:09:16.954Z,6.57
2022-08-22T13:11:49.746Z,4.10
2022-08-22T13:14:25.636Z,6.28
2022-08-22T13:17:01.027Z,4.95
2022-08-22T13:19:57.396Z,6.30
2022-08-22T13:22:29.113Z,5.07
2022-08-22T13:25:25.572Z,6.60
2022-08-22T13:28:04.296Z,5.32
2022-08-22T13:30:34.817Z,7.85
2022-08-22T13:33:14.310Z,5.47
2022-08-22T13:35:51.686Z,8.00
2022-08-22T13:38:46.340Z,6.05
2022-08-22T13:41:23.769Z,7.75
2022-08-22T13:44:07.034Z,7.03
2022-08-22T13:46:48.194Z,4.40
2022-08-22T13:49:42.273Z,4.63
2022-08-22T13:52:28.817Z,6.28
2022-08-22T13:55:22.775Z,6.05
2022-08-22T13:58:00.423Z,5.22
2022-08-22T14:00:57.426Z,5.13
2022-08-22T14:03:54.065Z,3.20
2022-08-22T14:06:46.552Z,6.68
2022-08-22T14:09:31.218Z,7.32
2022-08-22T14:12:12.109Z,8.73
2022-08-22T14:14:43.418Z,5.53
2022-08-22T14:17:18.359Z,4.85
2022-08-22T14:19:59.479Z,5.57
2022-08-22T14:22:35.586Z,4.55
2022-08-22T14:25:17.735Z,5.80
2022-08-22T14:27:52.523Z,5.68
2022-08-22T14:30:26.374Z,5.47
2022-08-22T14:32:58.979Z,8.00
2022-08-22T14:35:38.037Z,5.68
2022-08-22T14:38:30.152Z,3.72
2022-08-22T14:41:05.432Z,6.32
2022-08-22T14:43:32.606Z,6.00
2022-08-22T14:46:06.315Z,4.07
2022-08-22T14:48:46.213Z,4.60
2022-08-22T14:51:25.113Z,4.88
2022-08-22T14:53:52.983Z,10.80
2022-08-22T14:58:54.984Z,6.53
2022-08-22T15:01:25.215Z,4.55
2022-08-22T15:04:04.494Z,4.38
2022-08-22T15:06:35.986Z,4.18
2022-08-22T15:09:11.482Z,4.90
2022-08-22T15:11:42.405Z,4.10
2022-08-22T15:14:42.766Z,5.20
2022-08-22T15:17:11.602Z,4.93
2022-08-22T15:19:46.368Z,6.57
2022-08-22T15:22:27.998Z,5.43
2022-08-22T15:25:14.315Z,5.28
2022-08-22T15:27:47.535Z,4.53
2022-08-22T15:30:20.978Z,7.45
2022-08-22T15:32:49.242Z,4.43
2022-08-22T15:35:30.099Z,3.92
2022-08-22T15:37:58.943Z,6.30
2022-08-22T15:40:40.505Z,9.55
2022-08-22T15:43:19.951Z,6.43
2022-08-22T15:45:49.061Z,5.80
2022-08-22T15:48:36.642Z,6.53
2022-08-22T15:54:01.059Z,4.15
2022-08-22T15:56:33.050Z,3.67
2022-08-22T15:59:53.530Z,3.55
2022-08-22T16:02:35.864Z,5.30
2022-08-22T16:05:05.916Z,4.45
2022-08-22T16:07:34.241Z,8.27
2022-08-22T16:10:11.555Z,6.22
2022-08-22T16:12:45.917Z,6.38
2022-08-22T16:15:51.294Z,5.60
2022-08-22T16:18:33.725Z,3.80
2022-08-22T16:21:02.438Z,3.63
2022-08-22T16:23:49.896Z,4.80
2022-08-22T16:26:23.269Z,6.32
2022-08-22T16:28:59.628Z,7.45
2022-08-22T16:31:35.778Z,8.20
2022-08-22T16:34:18.594Z,6.07
2022-08-22T16:36:50.786Z,19.65
2022-08-22T16:39:23.907Z,7.93
2022-08-22T16:42:13.041Z,4.95
2022-08-22T16:44:56.198Z,5.57
2022-08-22T16:47:41.837Z,5.97
2022-08-22T16:50:24.133Z,4.32
2022-08-22T16:52:53.746Z,8.52
2022-08-22T16:55:30.240Z,5.93
2022-08-22T16:58:07.220Z,5.45
2022-08-22T17:00:59.014Z,6.13
2022-08-22T17:03:29.184Z,3.08
2022-08-22T17:06:17.593Z,4.88
2022-08-22T17:09:23.696Z,3.47
2022-08-22T17:12:24.599Z,7.88
2022-08-22T17:15:25.534Z,6.85
2022-08-22T17:18:15.080Z,10.05
2022-08-22T17:20:54.836Z,3.67
2022-08-22T17:23:37.560Z,6.78
2022-08-22T17:26:18.087Z,5.13
2022-08-22T17:29:23.941Z,8.05
2022-08-22T17:32:11.917Z,5.10
2022-08-22T17:35:07.144Z,5.07
2022-08-22T17:37:51.082Z,5.88
2022-08-22T17:40:24.433Z,4.28
2022-08-22T17:43:01.202Z,5.38
2022-08-22T17:45:37.443Z,4.60
2022-08-22T17:48:28.716Z,5.30
2022-08-22T17:51:03.014Z,4.47
2022-08-22T17:53:44.846Z,7.50
2022-08-22T17:56:38.785Z,6.43
2022-08-22T17:59:20.669Z,6.28
2022-08-22T18:02:16.592Z,5.65
2022-08-22T18:04:52.502Z,4.80
2022-08-22T18:07:39.277Z,5.13
2022-08-22T18:10:16.295Z,3.80
2022-08-22T18:12:56.903Z,5.30
2022-08-22T18:15:47.203Z,4.45
2022-08-22T18:18:31.199Z,5.60
2022-08-22T18:21:21.602Z,4.95
2022-08-22T18:23:54.177Z,4.80
2022-08-22T18:26:31.207Z,5.15
2022-08-22T18:29:16.010Z,5.40
2022-08-22T18:31:49.151Z,5.22
2022-08-22T18:34:22.462Z,5.00
2022-08-22T18:36:57.365Z,5.93
2022-08-22T18:39:42.635Z,6.30
2022-08-22T18:42:24.610Z,8.35
2022-08-22T18:44:51.978Z,5.65
2022-08-22T18:47:24.758Z,5.28
2022-08-22T18:49:55.020Z,4.95
2022-08-22T18:52:25.294Z,5.57
2022-08-22T18:55:15.045Z,4.22
2022-08-22T18:57:57.825Z,6.47
2022-08-22T19:00:51.716Z,7.18
2022-08-22T19:03:56.006Z,4.45
2022-08-22T19:06:41.873Z,7.30
2022-08-22T19:09:21.433Z,3.15
2022-08-22T19:12:21.856Z,7.47
2022-08-22T19:15:14.805Z,5.13
2022-08-22T19:18:04.604Z,6.40
2022-08-22T19:20:53.718Z,5.30
2022-08-22T19:23:37.156Z,4.07
2022-08-22T19:26:26.202Z,4.28
2022-08-22T19:28:58.367Z,4.65
2022-08-22T19:31:44.469Z,3.58
2022-08-22T19:34:28.701Z,4.35
2022-08-22T19:37:30.729Z,6.20
2022-08-22T19:40:08.331Z,4.45
2022-08-22T19:42:38.277Z,6.00
2022-08-22T19:45:29.476Z,5.07
2022-08-22T19:48:13.247Z,5.75
2022-08-22T19:50:42.737Z,4.30
2022-08-22T19:53:42.415Z,4.32
2022-08-22T19:56:39.633Z,7.43
2022-08-22T19:59:30.179Z,4.38
2022-08-22T20:02:23.939Z,5.38
2022-08-22T20:05:21.387Z,4.25
2022-08-22T20:11:17.395Z,5.85
2022-08-22T20:13:45.560Z,5.28
2022-08-22T20:16:18.413Z,7.00
2022-08-22T20:19:01.910Z,6.03
2022-08-22T20:22:01.262Z,5.32
2022-08-22T20:24:46.720Z,5.10
2022-08-22T20:27:20.078Z,10.23
2022-08-22T20:30:13.135Z,7.72
2022-08-22T20:32:50.923Z,5.88
2022-08-22T20:38:06.599Z,5.47
2022-08-22T20:40:59.571Z,5.03
2022-08-22T20:43:55.534Z,8.00
2022-08-22T20:46:26.643Z,9.13
2022-08-22T20:48:56.540Z,5.93
2022-08-22T20:51:26.573Z,4.85
2022-08-22T20:53:56.301Z,8.68
2022-08-22T20:56:51.640Z,7.93
2022-08-22T21:02:04.264Z,5.55
2022-08-22T21:04:42.707Z,5.03
2022-08-22T21:07:10.781Z,5.07
2022-08-22T21:09:56.594Z,8.38
2022-08-22T21:12:24.913Z,5.95
2022-08-22T21:14:52.326Z,5.65
2022-08-22T21:17:29.162Z,6.63
2022-08-22T21:20:21.410Z,5.88
2022-08-22T21:22:49.259Z,5.55
2022-08-22T21:27:48.128Z,9.43
2022-08-22T21:30:23.766Z,9.98
2022-08-22T21:32:55.651Z,8.55
2022-08-22T21:35:32.663Z,6.85
2022-08-22T21:38:01.278Z,9.57
2022-08-22T21:40:35.926Z,6.88
2022-08-22T21:43:12.183Z,12.18
2022-08-22T21:45:39.358Z,8.80
2022-08-22T21:48:45.210Z,8.30
2022-08-22T21:51:36.594Z,10.02
2022-08-22T21:54:25.778Z,10.75
2022-08-22T21:57:09.311Z,8.95
2022-08-22T21:59:50.897Z,9.43
2022-08-22T22:02:37.157Z,9.80
2022-08-22T22:05:14.423Z,11.52
2022-08-22T22:07:44.444Z,9.90
2022-08-22T22:10:15.978Z,10.43
2022-08-22T22:12:45.373Z,12.30
2022-08-22T22:15:17.443Z,10.48
2022-08-22T22:17:44.718Z,9.98
2022-08-22T22:20:14.009Z,9.38
2022-08-22T22:22:46.078Z,10.18
2022-08-22T22:25:40.825Z,10.45
2022-08-22T22:28:13.533Z,13.70
2022-08-22T22:30:42.197Z,12.68
2022-08-22T22:33:10.187Z,13.35
2022-08-22T22:38:07.744Z,11.00
2022-08-22T22:40:35.772Z,10.27
2022-08-22T22:43:03.475Z,11.20
2022-08-22T22:45:30.878Z,9.95
2022-08-22T22:47:58.217Z,20.00
2022-08-22T22:50:26.058Z,14.18
2022-08-22T22:52:54.115Z,13.40
2022-08-22T22:55:25.139Z,15.23
2022-08-22T22:57:59.113Z,10.60
2022-08-22T23:00:33.283Z,12.13
2022-08-22T23:03:03.609Z,15.48
2022-08-22T23:05:31.477Z,13.25
2022-08-22T23:07:59.581Z,14.15
2022-08-22T23:10:29.007Z,11.80
2022-08-22T23:12:57.290Z,16.00
2022-08-22T23:15:25.039Z,14.88
2022-08-22T23:17:52.286Z,14.35
2022-08-22T23:20:19.809Z,12.93
2022-08-22T23:22:47.807Z,12.60
2022-08-22T23:27:42.835Z,13.02
2022-08-22T23:30:11.217Z,15.30
2022-08-22T23:32:39.337Z,19.50
2022-08-22T23:35:07.203Z,17.38
2022-08-22T23:40:02.754Z,14.88
2022-08-22T23:44:57.063Z,11.45
2022-08-22T23:47:24.390Z,14.73
2022-08-22T23:49:51.672Z,15.93
2022-08-22T23:52:18.956Z,13.82
2022-08-22T23:54:46.559Z,15.73
2022-08-22T23:57:14.247Z,18.48
2022-08-22T23:59:48.059Z,16.27
